Terminal Aerodrome Forecast
Issued by NWS

Home | Current Version | Previous Version | Text Only | Print | Product List | Glossary On
Versions: 1 2 3 4 5 6 7 8 9 10 11 12 13 14
589
FTUS46 KPDT 040520
TAFRDM
TAF
KRDM 040520Z 0406/0506 29006KT P6SM SCT100 BKN120
     FM041000 VRB04KT P6SM SCT080 BKN100
     FM042000 31010KT P6SM -SHRA SCT050 BKN080=

USA.gov is the U.S. government's official web portal to all federal, state and local government web resources and services.